This is the latest recevied weather packets stored in our database for station/object EB2EMZ-3. If no packets are shown the sender has not sent any weather packets the latest 1 day(s).
| Time | Temp. | Humidity | Pressure | Rain* | Wind** | Luminosity | Snow |
|---|---|---|---|---|---|---|---|
| 1778064271 | 21.11° C | 44% | 1011.6 hPa | 0 mm | - | - | - |
| 1778063071 | 21.11° C | 43% | 1011.8 hPa | 0 mm | - | - | - |
| 1778062471 | 20.56° C | 43% | 1011.7 hPa | 0 mm | - | - | - |
| 1778062171 | 20.56° C | 43% | 1011.9 hPa | 0 mm | - | - | - |
| 1778061271 | 20.56° C | 43% | 1011.9 hPa | 0 mm | - | - | - |
| 1778060671 | 20.56° C | 43% | 1012 hPa | 0 mm | - | - | - |
| 1778059171 | 20° C | 44% | 1012.2 hPa | 0 mm | - | - | - |
| 1778058871 | 20° C | 44% | 1012 hPa | 0 mm | - | - | - |
| 1778057071 | 19.44° C | 46% | 1012 hPa | 0 mm | - | - | - |
| 1778056472 | 18.89° C | 48% | 1011.8 hPa | 0 mm | - | - | - |
| 1778053171 | 17.22° C | 52% | 1011.5 hPa | 0 mm | - | - | - |
| 1778051072 | 16.11° C | 57% | 1011.5 hPa | 0 mm | - | - | - |
| 1778050472 | 16.11° C | 58% | 1011.5 hPa | 0 mm | - | - | - |
| 1778050172 | 16.11° C | 59% | 1011.7 hPa | 0 mm | - | - | - |
| 1778049872 | 15.56° C | 59% | 1011.7 hPa | 0 mm | - | - | - |
| 1778049572 | 15° C | 60% | 1011.6 hPa | 0 mm | - | - | - |
| 1778049272 | 15° C | 60% | 1011.5 hPa | 0 mm | - | - | - |
| 1778048972 | 15° C | 60% | 1011.5 hPa | 0 mm | - | - | - |
| 1778048672 | 15° C | 60% | 1011.2 hPa | 0 mm | - | - | - |
| 1778048372 | 15° C | 60% | 1011.3 hPa | 0 mm | - | - | - |
| 1778048072 | 15° C | 61% | 1011.3 hPa | 0 mm | - | - | - |
| 1778047772 | 14.44° C | 61% | 1011.5 hPa | 0 mm | - | - | - |
| 1778047472 | 13.89° C | 61% | 1011.3 hPa | 0 mm | - | - | - |
| 1778047172 | 13.89° C | 61% | 1011.3 hPa | 0 mm | - | - | - |
| 1778046872 | 13.89° C | 62% | 1011.1 hPa | 0 mm | - | - | - |
* Rain latest hour (hover to see other rain measurements)
** Current wind speed in m/s (hover to see current wind gust speed)